Time;durP1;ratioP1;P1;durP2;ratioP2;P2;SDS_P1;SDS_P2;PMS_P1;PMS_P2;Temp;Humidity;BMP_temperature;BMP_pressure;BME280_temperature;BME280_humidity;BME280_pressure;Samples;Min_cycle;Max_cycle;Signal;HPM_P1;HPM_P2
2022/04/14 00:00:41;;;;;;;7.17;6.47;;;;;;;;;;5096635;28;20432;-78
2022/04/14 00:03:08;;;;;;;7.17;6.43;;;;;;;;;;5093776;28;20448;-79
2022/04/14 00:05:36;;;;;;;9.53;6.40;;;;;;;;;;5091170;28;20602;-79
2022/04/14 00:08:03;;;;;;;7.33;6.33;;;;;;;;;;5091846;28;20480;-77
2022/04/14 00:10:31;;;;;;;7.83;5.97;;;;;;;;;;5092376;28;20444;-78
2022/04/14 00:12:58;;;;;;;7.57;6.30;;;;;;;;;;5089464;28;20466;-79
2022/04/14 00:15:25;;;;;;;6.70;6.10;;;;;;;;;;5093917;28;20467;-79
2022/04/14 00:17:52;;;;;;;7.30;6.03;;;;;;;;;;5095897;28;20443;-80
2022/04/14 00:20:19;;;;;;;8.87;6.33;;;;;;;;;;5094910;28;20439;-79
2022/04/14 00:22:47;;;;;;;7.30;6.40;;;;;;;;;;5095996;28;20448;-79
2022/04/14 00:25:14;;;;;;;7.57;6.07;;;;;;;;;;5095979;28;20462;-80
2022/04/14 00:27:41;;;;;;;6.83;6.13;;;;;;;;;;5108596;28;20482;-79
2022/04/14 00:30:10;;;;;;;6.77;6.10;;;;;;;;;;5096543;28;20448;-79
2022/04/14 00:32:37;;;;;;;9.40;6.17;;;;;;;;;;5094899;28;20946;-79
2022/04/14 00:35:04;;;;;;;7.83;7.07;;;;;;;;;;5095218;28;20487;-79
2022/04/14 00:37:31;;;;;;;7.03;6.33;;;;;;;;;;5095422;28;20443;-79
2022/04/14 00:39:59;;;;;;;7.73;6.67;;;;;;;;;;5094888;28;20456;-79
2022/04/14 00:42:26;;;;;;;9.30;6.90;;;;;;;;;;5094928;28;20439;-78
2022/04/14 00:44:53;;;;;;;10.60;6.20;;;;;;;;;;5094735;28;20464;-79
2022/04/14 00:47:21;;;;;;;7.60;6.83;;;;;;;;;;5094350;28;20467;-79
2022/04/14 00:49:48;;;;;;;5.80;5.33;;;;;;;;;;5094347;28;20471;-79
2022/04/14 00:52:15;;;;;;;7.47;6.67;;;;;;;;;;5094658;28;20444;-79
2022/04/14 00:54:42;;;;;;;10.47;7.10;;;;;;;;;;5094201;28;20459;-79
2022/04/14 00:57:11;;;;;;;8.67;7.03;;;;;;;;;;5094177;28;20443;-79
2022/04/14 00:59:38;;;;;;;7.17;6.50;;;;;;;;;;5094623;28;20440;-79
2022/04/14 01:02:06;;;;;;;12.23;7.27;;;;;;;;;;5095197;28;20534;-79
2022/04/14 01:04:33;;;;;;;8.00;6.80;;;;;;;;;;5094584;28;20468;-79
2022/04/14 01:07:01;;;;;;;9.50;6.93;;;;;;;;;;5078819;28;20932;-79
2022/04/14 01:09:29;;;;;;;7.73;7.00;;;;;;;;;;5074099;28;20476;-79
2022/04/14 01:11:56;;;;;;;7.90;6.50;;;;;;;;;;5073981;28;20451;-80
2022/04/14 01:14:28;;;;;;;6.60;5.90;;;;;;;;;;5073686;28;20441;-78
2022/04/14 01:16:57;;;;;;;10.27;7.77;;;;;;;;;;5073900;28;20833;-79
2022/04/14 01:19:24;;;;;;;7.33;6.63;;;;;;;;;;5074324;28;20456;-79
2022/04/14 01:21:54;;;;;;;8.67;6.40;;;;;;;;;;5074165;28;20917;-79
2022/04/14 01:24:23;;;;;;;8.63;6.50;;;;;;;;;;5076176;28;20437;-79
2022/04/14 01:26:50;;;;;;;8.07;6.00;;;;;;;;;;5089246;28;20467;-79
2022/04/14 01:29:23;;;;;;;7.27;5.90;;;;;;;;;;5083591;28;20484;-79
2022/04/14 01:31:50;;;;;;;7.10;6.40;;;;;;;;;;5077001;28;20444;-79
2022/04/14 01:34:17;;;;;;;7.10;6.50;;;;;;;;;;5078089;28;20441;-79
2022/04/14 01:36:44;;;;;;;6.40;5.80;;;;;;;;;;5074693;28;20452;-78
2022/04/14 01:39:13;;;;;;;7.13;6.43;;;;;;;;;;5077673;28;20498;-79
2022/04/14 01:41:42;;;;;;;7.40;6.70;;;;;;;;;;5076847;28;20453;-79
2022/04/14 01:44:09;;;;;;;8.17;6.10;;;;;;;;;;5075305;28;20444;-80
2022/04/14 01:46:37;;;;;;;10.10;6.50;;;;;;;;;;5075806;28;20451;-80
2022/04/14 01:49:04;;;;;;;8.03;6.67;;;;;;;;;;5076429;28;20576;-79
2022/04/14 01:51:31;;;;;;;8.73;6.40;;;;;;;;;;5075466;28;20825;-79
2022/04/14 01:53:58;;;;;;;8.27;6.83;;;;;;;;;;5076916;28;20436;-78
2022/04/14 01:56:26;;;;;;;9.43;6.63;;;;;;;;;;5075584;28;20467;-78
2022/04/14 01:58:54;;;;;;;6.83;6.23;;;;;;;;;;5075969;28;20441;-78
2022/04/14 02:01:21;;;;;;;14.47;6.37;;;;;;;;;;5077594;28;20429;-79
2022/04/14 02:03:48;;;;;;;9.40;6.70;;;;;;;;;;5075121;28;20769;-78
2022/04/14 02:06:15;;;;;;;6.80;5.80;;;;;;;;;;5084033;28;20467;-80
2022/04/14 02:08:43;;;;;;;6.20;5.70;;;;;;;;;;5093718;28;20498;-80
2022/04/14 02:11:10;;;;;;;7.20;6.40;;;;;;;;;;5094037;28;20440;-79
2022/04/14 02:13:37;;;;;;;6.53;5.83;;;;;;;;;;5093632;28;20733;-80
2022/04/14 02:16:06;;;;;;;8.10;6.10;;;;;;;;;;5094006;28;20807;-79
2022/04/14 02:18:34;;;;;;;10.70;6.63;;;;;;;;;;5093748;28;20923;-80
2022/04/14 02:21:01;;;;;;;7.20;6.60;;;;;;;;;;5094146;28;20436;-80
2022/04/14 02:23:28;;;;;;;7.83;7.00;;;;;;;;;;5094420;28;20550;-79
2022/04/14 02:25:55;;;;;;;7.47;6.80;;;;;;;;;;5092894;28;20471;-79
2022/04/14 02:28:22;;;;;;;7.87;7.03;;;;;;;;;;5093333;28;20478;-78
2022/04/14 02:30:50;;;;;;;7.57;6.87;;;;;;;;;;5093099;28;20493;-79
2022/04/14 02:33:18;;;;;;;7.90;6.80;;;;;;;;;;5092758;28;20440;-80
2022/04/14 02:35:46;;;;;;;10.80;7.40;;;;;;;;;;5092451;28;20464;-78
2022/04/14 02:38:13;;;;;;;8.33;7.53;;;;;;;;;;5092220;28;20451;-79
2022/04/14 02:40:40;;;;;;;8.70;7.63;;;;;;;;;;5092476;28;20440;-78
2022/04/14 02:43:07;;;;;;;8.57;7.57;;;;;;;;;;5091954;28;20446;-78
2022/04/14 02:45:35;;;;;;;9.97;7.77;;;;;;;;;;5092412;28;20455;-78
2022/04/14 02:48:02;;;;;;;9.67;7.57;;;;;;;;;;5092605;28;20898;-80
2022/04/14 02:50:30;;;;;;;8.70;6.77;;;;;;;;;;5092437;28;20451;-79
2022/04/14 02:52:57;;;;;;;9.93;8.03;;;;;;;;;;5092053;28;20432;-78
2022/04/14 02:55:24;;;;;;;8.33;7.17;;;;;;;;;;5092086;28;20476;-78
2022/04/14 02:57:51;;;;;;;8.40;7.60;;;;;;;;;;5096417;28;20448;-78
2022/04/14 03:00:18;;;;;;;9.13;8.23;;;;;;;;;;5092275;28;20447;-77
2022/04/14 03:02:47;;;;;;;8.73;7.93;;;;;;;;;;5091921;28;20797;-78
2022/04/14 03:05:14;;;;;;;9.23;7.70;;;;;;;;;;5092244;28;20459;-78
2022/04/14 03:07:43;;;;;;;9.20;8.00;;;;;;;;;;5071975;28;20448;-79
2022/04/14 03:10:10;;;;;;;9.63;7.80;;;;;;;;;;5072950;28;20445;-79
2022/04/14 03:12:40;;;;;;;9.20;8.40;;;;;;;;;;5072932;28;20444;-79
2022/04/14 03:15:07;;;;;;;10.63;8.60;;;;;;;;;;5072675;28;20464;-79
2022/04/14 03:17:34;;;;;;;11.47;8.60;;;;;;;;;;5072567;28;20456;-79
2022/04/14 03:20:02;;;;;;;10.13;8.10;;;;;;;;;;5072602;28;20445;-79
2022/04/14 03:22:32;;;;;;;9.30;8.40;;;;;;;;;;5073093;28;20895;-78
2022/04/14 03:25:00;;;;;;;9.67;8.67;;;;;;;;;;5071685;28;20469;-79
2022/04/14 03:27:27;;;;;;;10.07;8.70;;;;;;;;;;5072300;28;20447;-78
2022/04/14 03:29:55;;;;;;;13.47;9.13;;;;;;;;;;5073363;28;20476;-79
2022/04/14 03:32:24;;;;;;;11.47;9.00;;;;;;;;;;5073316;28;20487;-78
2022/04/14 03:34:51;;;;;;;10.80;9.70;;;;;;;;;;5071846;28;20511;-78
2022/04/14 03:37:18;;;;;;;12.50;8.90;;;;;;;;;;5071681;28;20481;-79
2022/04/14 03:39:45;;;;;;;11.57;10.40;;;;;;;;;;5071211;28;20444;-78
2022/04/14 03:42:14;;;;;;;10.30;9.30;;;;;;;;;;5071413;28;20452;-79
2022/04/14 03:44:41;;;;;;;10.70;8.20;;;;;;;;;;5071258;28;20458;-78
2022/04/14 03:47:08;;;;;;;12.57;8.60;;;;;;;;;;5074315;28;20456;-79
2022/04/14 03:49:35;;;;;;;13.80;8.97;;;;;;;;;;5079295;28;20533;-78
2022/04/14 03:52:03;;;;;;;10.13;9.10;;;;;;;;;;5082658;28;20943;-78
2022/04/14 03:54:30;;;;;;;10.10;9.10;;;;;;;;;;5075673;28;21005;-78
2022/04/14 03:56:57;;;;;;;9.90;9.07;;;;;;;;;;5075399;28;20452;-78
2022/04/14 03:59:25;;;;;;;10.07;8.90;;;;;;;;;;5075696;28;20445;-77
2022/04/14 04:01:52;;;;;;;9.83;8.83;;;;;;;;;;5075572;28;20452;-78
2022/04/14 04:04:19;;;;;;;10.20;9.23;;;;;;;;;;5075018;28;20451;-79
2022/04/14 04:06:46;;;;;;;12.00;9.50;;;;;;;;;;5088789;28;20444;-78
2022/04/14 04:09:14;;;;;;;13.37;8.80;;;;;;;;;;5096257;28;20483;-79
2022/04/14 04:11:41;;;;;;;9.30;8.50;;;;;;;;;;5095914;28;20455;-78
2022/04/14 04:14:08;;;;;;;9.77;8.53;;;;;;;;;;5095723;28;20456;-79
2022/04/14 04:16:36;;;;;;;9.57;8.70;;;;;;;;;;5095781;28;20447;-79
2022/04/14 04:19:03;;;;;;;15.07;13.63;;;;;;;;;;5096269;28;20436;-79
2022/04/14 04:21:31;;;;;;;15.40;13.13;;;;;;;;;;5095562;28;20447;-78
2022/04/14 04:23:58;;;;;;;10.83;9.73;;;;;;;;;;5095157;28;20459;-79
2022/04/14 04:26:25;;;;;;;10.37;8.67;;;;;;;;;;5095766;28;20471;-78
2022/04/14 04:28:52;;;;;;;13.50;8.43;;;;;;;;;;5095848;28;20502;-80
2022/04/14 04:31:19;;;;;;;9.90;8.90;;;;;;;;;;5095866;28;20451;-79
2022/04/14 04:33:51;;;;;;;10.97;9.87;;;;;;;;;;5095463;28;20443;-78
2022/04/14 04:36:18;;;;;;;12.10;9.10;;;;;;;;;;5095784;28;21009;-79
2022/04/14 04:38:45;;;;;;;11.93;8.93;;;;;;;;;;5094536;28;20444;-79
2022/04/14 04:41:12;;;;;;;10.97;9.83;;;;;;;;;;5095537;28;20830;-79
2022/04/14 04:43:39;;;;;;;11.97;9.57;;;;;;;;;;5094347;28;20440;-79
2022/04/14 04:46:08;;;;;;;12.27;9.90;;;;;;;;;;5094688;28;20470;-79
2022/04/14 04:48:35;;;;;;;15.53;10.40;;;;;;;;;;5095175;28;20533;-79
2022/04/14 04:51:03;;;;;;;11.70;9.60;;;;;;;;;;5094891;28;20922;-79
2022/04/14 04:53:31;;;;;;;11.90;9.43;;;;;;;;;;5094130;28;20470;-79
2022/04/14 04:55:58;;;;;;;14.23;11.00;;;;;;;;;;5094526;28;20474;-79
2022/04/14 04:58:25;;;;;;;13.37;10.63;;;;;;;;;;5094745;28;20475;-79
2022/04/14 05:00:53;;;;;;;12.03;10.27;;;;;;;;;;5093348;28;20947;-79
2022/04/14 05:03:21;;;;;;;11.90;10.70;;;;;;;;;;5094428;28;20455;-79
2022/04/14 05:05:49;;;;;;;17.20;10.57;;;;;;;;;;5094318;28;20473;-78
2022/04/14 05:08:17;;;;;;;11.37;10.27;;;;;;;;;;5095129;28;20459;-78
2022/04/14 05:10:44;;;;;;;11.27;10.17;;;;;;;;;;5094961;28;20486;-79
2022/04/14 05:13:14;;;;;;;11.37;10.13;;;;;;;;;;5094405;28;20458;-79
2022/04/14 05:15:41;;;;;;;11.70;10.50;;;;;;;;;;5094720;28;20464;-80
2022/04/14 05:18:08;;;;;;;14.73;13.20;;;;;;;;;;5095786;28;20443;-81
2022/04/14 05:20:35;;;;;;;10.90;10.00;;;;;;;;;;5094520;28;20431;-79
2022/04/14 05:23:03;;;;;;;13.80;11.03;;;;;;;;;;5095013;28;20447;-80
2022/04/14 05:25:31;;;;;;;14.73;11.60;;;;;;;;;;5097275;28;20443;-80
2022/04/14 05:27:58;;;;;;;13.70;9.90;;;;;;;;;;5102169;28;20444;-79
2022/04/14 05:30:26;;;;;;;12.60;11.33;;;;;;;;;;5101994;28;20482;-79
2022/04/14 05:32:53;;;;;;;14.87;12.03;;;;;;;;;;5102372;28;20915;-81
2022/04/14 05:35:21;;;;;;;11.50;10.37;;;;;;;;;;5101645;28;20448;-80
2022/04/14 05:37:48;;;;;;;13.20;11.33;;;;;;;;;;5096619;28;20493;-80
2022/04/14 05:40:15;;;;;;;14.30;11.10;;;;;;;;;;5097530;28;20509;-81
2022/04/14 05:42:46;;;;;;;12.90;11.60;;;;;;;;;;5097407;28;20458;-80
2022/04/14 05:45:13;;;;;;;13.03;11.83;;;;;;;;;;5094323;28;20490;-80
2022/04/14 05:47:40;;;;;;;12.67;11.23;;;;;;;;;;5094492;28;20459;-81
2022/04/14 05:50:08;;;;;;;15.80;11.57;;;;;;;;;;5094491;28;20491;-79
2022/04/14 05:52:35;;;;;;;14.73;11.53;;;;;;;;;;5094936;28;20424;-79
2022/04/14 05:55:02;;;;;;;12.20;11.00;;;;;;;;;;5096012;28;20546;-80
2022/04/14 05:57:29;;;;;;;13.13;11.70;;;;;;;;;;5094553;28;20947;-81
2022/04/14 05:59:58;;;;;;;14.80;11.93;;;;;;;;;;5094615;28;20455;-79
2022/04/14 06:02:25;;;;;;;16.67;11.33;;;;;;;;;;5094998;28;20458;-81
2022/04/14 06:04:52;;;;;;;14.43;12.03;;;;;;;;;;5095094;28;20470;-81
2022/04/14 06:07:19;;;;;;;18.43;11.90;;;;;;;;;;5095846;28;20919;-80
2022/04/14 06:09:46;;;;;;;17.07;11.90;;;;;;;;;;5096766;28;20471;-80
2022/04/14 06:12:13;;;;;;;16.73;14.03;;;;;;;;;;5095898;28;20443;-79
2022/04/14 06:14:40;;;;;;;19.43;14.20;;;;;;;;;;5095245;28;20495;-79
2022/04/14 06:17:08;;;;;;;16.77;14.90;;;;;;;;;;5094902;28;20451;-79
2022/04/14 06:19:35;;;;;;;23.20;15.73;;;;;;;;;;5095012;28;20818;-80
2022/04/14 06:22:02;;;;;;;17.70;15.97;;;;;;;;;;5098922;28;20493;-80
2022/04/14 06:24:30;;;;;;;19.30;16.57;;;;;;;;;;5094102;28;20464;-80
2022/04/14 06:26:57;;;;;;;28.07;25.03;;;;;;;;;;5094786;28;20481;-80
2022/04/14 06:29:24;;;;;;;24.70;21.30;;;;;;;;;;5095732;28;20503;-80
2022/04/14 06:31:51;;;;;;;26.00;21.90;;;;;;;;;;5095499;28;20607;-80
2022/04/14 06:34:19;;;;;;;33.73;25.70;;;;;;;;;;5094319;28;20989;-81
2022/04/14 06:36:46;;;;;;;32.73;29.30;;;;;;;;;;5098438;28;20443;-81
2022/04/14 06:39:13;;;;;;;38.13;33.00;;;;;;;;;;5094992;28;20523;-79
2022/04/14 06:41:40;;;;;;;35.47;31.70;;;;;;;;;;5098841;28;20446;-81
2022/04/14 06:44:07;;;;;;;35.33;31.50;;;;;;;;;;5093745;28;20448;-79
2022/04/14 06:46:34;;;;;;;34.20;30.60;;;;;;;;;;5094158;28;20436;-80
2022/04/14 06:49:03;;;;;;;33.87;30.33;;;;;;;;;;5095653;28;20452;-81
2022/04/14 06:51:32;;;;;;;40.83;30.67;;;;;;;;;;5096452;28;20432;-82
2022/04/14 06:53:59;;;;;;;37.83;29.50;;;;;;;;;;5093613;28;20497;-82
2022/04/14 06:56:26;;;;;;;33.83;29.87;;;;;;;;;;5092834;28;20448;-79
2022/04/14 06:58:53;;;;;;;33.87;29.93;;;;;;;;;;5094509;28;20447;-81
2022/04/14 07:01:20;;;;;;;30.30;27.13;;;;;;;;;;5095767;28;20440;-81
2022/04/14 07:03:47;;;;;;;33.27;27.40;;;;;;;;;;5097291;28;20445;-82
2022/04/14 07:06:14;;;;;;;33.97;27.87;;;;;;;;;;5086321;28;20457;-81
2022/04/14 07:08:43;;;;;;;32.43;27.90;;;;;;;;;;5074872;28;20433;-80
2022/04/14 07:11:10;;;;;;;33.60;28.10;;;;;;;;;;5075439;28;20480;-80
2022/04/14 07:13:37;;;;;;;30.50;26.90;;;;;;;;;;5076615;28;20456;-79
2022/04/14 07:16:21;;;;;;;30.63;26.50;;;;;;;;;;5076852;28;20463;-80
2022/04/14 07:19:00;;;;;;;28.07;25.17;;;;;;;;;;5085008;28;20444;-79
2022/04/14 07:21:27;;;;;;;29.27;26.30;;;;;;;;;;5083524;28;20444;-79
2022/04/14 07:23:59;;;;;;;28.60;25.57;;;;;;;;;;5078362;28;20943;-81
2022/04/14 07:26:29;;;;;;;29.97;24.90;;;;;;;;;;5076688;28;20527;-80
2022/04/14 07:28:59;;;;;;;27.67;24.90;;;;;;;;;;5074600;28;20464;-79
2022/04/14 07:31:45;;;;;;;28.23;25.43;;;;;;;;;;5074680;28;20930;-80
2022/04/14 07:34:31;;;;;;;28.67;25.50;;;;;;;;;;5076095;28;20428;-79
2022/04/14 07:36:58;;;;;;;29.40;24.90;;;;;;;;;;5073296;28;20451;-78
2022/04/14 07:39:26;;;;;;;28.93;25.87;;;;;;;;;;5073880;28;20448;-80
2022/04/14 07:41:53;;;;;;;27.00;23.93;;;;;;;;;;5072825;28;20445;-79
2022/04/14 07:44:20;;;;;;;26.73;24.00;;;;;;;;;;5072715;28;20440;-79
2022/04/14 07:46:47;;;;;;;27.00;24.10;;;;;;;;;;5074460;28;20943;-81
2022/04/14 07:49:14;;;;;;;25.77;23.00;;;;;;;;;;5076068;28;20440;-80
2022/04/14 07:51:42;;;;;;;25.97;22.97;;;;;;;;;;5076220;28;20452;-81
2022/04/14 07:54:12;;;;;;;25.83;23.20;;;;;;;;;;5073990;28;20499;-80
2022/04/14 07:56:40;;;;;;;26.47;22.63;;;;;;;;;;5076133;28;20433;-79
2022/04/14 07:59:07;;;;;;;24.77;22.43;;;;;;;;;;5073129;28;20440;-80
2022/04/14 08:01:34;;;;;;;25.30;22.70;;;;;;;;;;5073902;28;20452;-80
2022/04/14 08:04:01;;;;;;;25.70;23.00;;;;;;;;;;5072906;28;20445;-79
2022/04/14 08:06:31;;;;;;;27.30;23.70;;;;;;;;;;5083858;28;20467;-80
2022/04/14 08:08:58;;;;;;;26.23;23.37;;;;;;;;;;5092642;28;20497;-80
2022/04/14 08:11:25;;;;;;;24.97;22.67;;;;;;;;;;5092872;28;20480;-80
2022/04/14 08:13:53;;;;;;;29.60;24.40;;;;;;;;;;5093190;28;20452;-80
2022/04/14 08:16:21;;;;;;;23.70;21.40;;;;;;;;;;5095731;28;20463;-80
2022/04/14 08:18:48;;;;;;;26.20;23.60;;;;;;;;;;5099146;28;20525;-80
2022/04/14 08:21:15;;;;;;;25.10;22.57;;;;;;;;;;5098270;28;20512;-79
2022/04/14 08:23:42;;;;;;;25.80;23.20;;;;;;;;;;5097505;28;20631;-79
2022/04/14 08:26:11;;;;;;;23.83;21.43;;;;;;;;;;5099280;28;20539;-79
2022/04/14 08:28:40;;;;;;;24.23;21.77;;;;;;;;;;5098724;28;20935;-79
2022/04/14 08:31:09;;;;;;;26.00;22.90;;;;;;;;;;5097787;28;20479;-80
2022/04/14 08:33:37;;;;;;;25.03;22.53;;;;;;;;;;5094531;28;20448;-79
2022/04/14 08:36:04;;;;;;;23.17;21.07;;;;;;;;;;5094366;28;20824;-80
2022/04/14 08:38:31;;;;;;;24.63;22.10;;;;;;;;;;5099063;28;20439;-82
2022/04/14 08:41:02;;;;;;;23.83;21.43;;;;;;;;;;5105820;28;20436;-80
2022/04/14 08:43:33;;;;;;;22.10;19.70;;;;;;;;;;5107990;28;20827;-81
2022/04/14 08:46:01;;;;;;;23.87;21.57;;;;;;;;;;5104232;28;20463;-78
2022/04/14 08:48:30;;;;;;;23.00;20.90;;;;;;;;;;5098992;28;20444;-80
2022/04/14 08:50:57;;;;;;;21.50;19.40;;;;;;;;;;5096831;28;20471;-79
2022/04/14 08:53:25;;;;;;;22.93;20.67;;;;;;;;;;5095070;28;20496;-79
2022/04/14 08:55:52;;;;;;;24.50;21.90;;;;;;;;;;5095998;28;20517;-78
2022/04/14 08:58:26;;;;;;;24.97;22.67;;;;;;;;;;5096434;28;20440;-78
2022/04/14 09:00:53;;;;;;;24.53;22.23;;;;;;;;;;5095628;28;20460;-80
2022/04/14 09:03:21;;;;;;;24.43;21.87;;;;;;;;;;5095835;28;20934;-80
2022/04/14 09:05:51;;;;;;;22.13;19.80;;;;;;;;;;5090620;28;20964;-79
2022/04/14 09:08:18;;;;;;;21.10;19.00;;;;;;;;;;5075418;28;20936;-79
2022/04/14 09:10:50;;;;;;;21.80;19.73;;;;;;;;;;5079390;28;20480;-78
2022/04/14 09:13:18;;;;;;;22.70;20.00;;;;;;;;;;5083930;28;20556;-79
2022/04/14 09:15:45;;;;;;;21.50;19.60;;;;;;;;;;5074827;28;20464;-80
2022/04/14 09:18:12;;;;;;;21.73;19.43;;;;;;;;;;5074916;28;20441;-80
2022/04/14 09:20:41;;;;;;;22.30;18.90;;;;;;;;;;5075231;28;20448;-79
2022/04/14 09:23:15;;;;;;;22.90;18.77;;;;;;;;;;5074747;28;20449;-80
2022/04/14 09:25:42;;;;;;;22.23;20.03;;;;;;;;;;5075320;28;20469;-81
2022/04/14 09:28:10;;;;;;;23.57;20.23;;;;;;;;;;5074883;28;20460;-80
2022/04/14 09:30:37;;;;;;;24.17;21.87;;;;;;;;;;5074958;28;20484;-80
2022/04/14 09:33:04;;;;;;;22.63;20.43;;;;;;;;;;5074315;28;20453;-79
2022/04/14 09:35:32;;;;;;;23.03;20.60;;;;;;;;;;5074463;28;20479;-79
2022/04/14 09:38:02;;;;;;;22.63;20.30;;;;;;;;;;5074657;28;20436;-79
2022/04/14 09:40:33;;;;;;;22.23;19.63;;;;;;;;;;5073919;28;20444;-80
2022/04/14 09:43:00;;;;;;;21.57;19.47;;;;;;;;;;5074735;28;20445;-80
2022/04/14 09:45:28;;;;;;;24.27;21.83;;;;;;;;;;5075665;28;20483;-79
2022/04/14 09:47:56;;;;;;;22.17;19.77;;;;;;;;;;5074894;28;20445;-79
2022/04/14 09:50:27;;;;;;;24.13;21.73;;;;;;;;;;5073820;28;20476;-79
2022/04/14 09:52:58;;;;;;;21.57;19.33;;;;;;;;;;5074507;28;20441;-79
2022/04/14 09:55:25;;;;;;;22.07;19.80;;;;;;;;;;5074276;28;20496;-79
2022/04/14 09:58:07;;;;;;;23.47;21.40;;;;;;;;;;5074469;28;20445;-80
2022/04/14 10:00:37;;;;;;;21.67;19.50;;;;;;;;;;5073790;28;20915;-80
2022/04/14 10:03:11;;;;;;;23.23;19.80;;;;;;;;;;5074134;28;20483;-80
2022/04/14 10:05:38;;;;;;;20.67;18.63;;;;;;;;;;5081247;28;20459;-80
2022/04/14 10:08:08;;;;;;;21.93;19.67;;;;;;;;;;5095801;28;20505;-80
2022/04/14 10:10:35;;;;;;;20.10;18.23;;;;;;;;;;5096869;28;20475;-79
2022/04/14 10:13:05;;;;;;;19.87;18.17;;;;;;;;;;5097677;28;20451;-80
2022/04/14 10:15:34;;;;;;;21.80;19.90;;;;;;;;;;5099260;28;20823;-79
2022/04/14 10:18:04;;;;;;;20.60;18.90;;;;;;;;;;5099559;28;20443;-79
2022/04/14 10:20:32;;;;;;;19.37;17.37;;;;;;;;;;5104834;28;20431;-80
2022/04/14 10:23:00;;;;;;;19.73;17.83;;;;;;;;;;5103804;28;20428;-79
2022/04/14 10:25:28;;;;;;;20.77;18.37;;;;;;;;;;5096750;28;20456;-80
2022/04/14 10:27:57;;;;;;;20.00;18.00;;;;;;;;;;5095010;28;20451;-79
2022/04/14 10:30:25;;;;;;;21.20;19.00;;;;;;;;;;5094567;28;20506;-79
2022/04/14 10:32:55;;;;;;;21.03;19.00;;;;;;;;;;5094075;28;20849;-80
2022/04/14 10:35:23;;;;;;;20.53;18.50;;;;;;;;;;5093827;28;20479;-79
2022/04/14 10:37:51;;;;;;;19.60;17.70;;;;;;;;;;5093290;28;20481;-80
2022/04/14 10:40:19;;;;;;;19.53;17.43;;;;;;;;;;5093703;28;20451;-80
2022/04/14 10:42:48;;;;;;;19.17;17.27;;;;;;;;;;5092874;28;20440;-79
2022/04/14 10:45:16;;;;;;;20.67;15.07;;;;;;;;;;5093106;28;20463;-79
2022/04/14 10:47:58;;;;;;;16.00;14.30;;;;;;;;;;5092533;28;20447;-80
2022/04/14 10:50:26;;;;;;;17.00;15.40;;;;;;;;;;5093532;28;20448;-79
2022/04/14 10:53:06;;;;;;;26.57;16.63;;;;;;;;;;5093506;28;20450;-79
2022/04/14 10:55:37;;;;;;;18.03;16.13;;;;;;;;;;5093566;28;20459;-79
2022/04/14 10:58:04;;;;;;;18.43;16.83;;;;;;;;;;5092436;28;20447;-79
2022/04/14 11:00:35;;;;;;;17.90;16.30;;;;;;;;;;5093538;28;20435;-79
2022/04/14 11:03:04;;;;;;;17.67;16.07;;;;;;;;;;5093558;28;20467;-79
2022/04/14 11:05:38;;;;;;;18.50;16.00;;;;;;;;;;5092356;28;20983;-79
2022/04/14 11:08:24;;;;;;;19.20;17.40;;;;;;;;;;5092674;28;20447;-79
2022/04/14 11:10:55;;;;;;;16.60;15.13;;;;;;;;;;5093636;28;20486;-79
2022/04/14 11:13:22;;;;;;;20.70;18.60;;;;;;;;;;5093152;28;20454;-80
2022/04/14 11:15:50;;;;;;;19.90;18.10;;;;;;;;;;5092793;28;20475;-79
2022/04/14 11:18:18;;;;;;;17.23;15.50;;;;;;;;;;5093462;28;20941;-79
2022/04/14 11:21:06;;;;;;;18.70;16.90;;;;;;;;;;5092217;28;20549;-79
2022/04/14 11:23:35;;;;;;;20.10;18.13;;;;;;;;;;5092818;28;20531;-79
2022/04/14 11:26:12;;;;;;;20.70;18.70;;;;;;;;;;5093094;28;20463;-79
2022/04/14 11:28:42;;;;;;;19.00;17.20;;;;;;;;;;5093957;28;20435;-80
2022/04/14 11:31:23;;;;;;;19.10;16.77;;;;;;;;;;5092915;28;20511;-79
2022/04/14 11:33:53;;;;;;;17.00;15.53;;;;;;;;;;5093538;28;20538;-79
2022/04/14 11:36:21;;;;;;;20.23;17.07;;;;;;;;;;5093850;28;20463;-81
2022/04/14 11:38:52;;;;;;;19.63;17.73;;;;;;;;;;5093516;28;20451;-79
2022/04/14 11:41:33;;;;;;;20.50;18.60;;;;;;;;;;5092085;28;20432;-79
2022/04/14 11:44:01;;;;;;;17.77;16.20;;;;;;;;;;5093195;28;20926;-80
2022/04/14 11:46:28;;;;;;;20.43;16.63;;;;;;;;;;5093510;28;20462;-78
2022/04/14 11:48:56;;;;;;;18.33;16.47;;;;;;;;;;5093156;28;20424;-79
2022/04/14 11:51:23;;;;;;;19.43;17.47;;;;;;;;;;5093127;28;20476;-79
2022/04/14 11:53:53;;;;;;;20.83;17.20;;;;;;;;;;5093145;28;20439;-79
2022/04/14 11:56:20;;;;;;;19.17;17.10;;;;;;;;;;5093069;28;20467;-79
2022/04/14 11:58:48;;;;;;;16.00;14.33;;;;;;;;;;5093209;28;20436;-79
2022/04/14 12:01:15;;;;;;;19.40;17.80;;;;;;;;;;5092119;28;20936;-79
2022/04/14 12:03:43;;;;;;;18.87;17.10;;;;;;;;;;5092892;28;20440;-79
2022/04/14 12:06:12;;;;;;;17.67;16.10;;;;;;;;;;5092645;28;20495;-79
2022/04/14 12:08:39;;;;;;;16.43;14.83;;;;;;;;;;5103172;28;20436;-78
2022/04/14 12:11:11;;;;;;;20.77;17.83;;;;;;;;;;5101839;28;20474;-79
2022/04/14 12:13:39;;;;;;;19.53;17.63;;;;;;;;;;5097276;28;20479;-79
2022/04/14 12:16:07;;;;;;;19.13;16.23;;;;;;;;;;5096762;28;20467;-80
2022/04/14 12:18:34;;;;;;;20.10;18.10;;;;;;;;;;5100187;28;20868;-78
2022/04/14 12:21:02;;;;;;;17.53;15.97;;;;;;;;;;5106778;28;20439;-78
2022/04/14 12:23:30;;;;;;;18.03;16.43;;;;;;;;;;5106767;28;20458;-79
2022/04/14 12:25:58;;;;;;;18.50;16.67;;;;;;;;;;5107377;28;20472;-79
2022/04/14 12:28:25;;;;;;;19.10;17.20;;;;;;;;;;5107493;28;20450;-79
2022/04/14 12:30:52;;;;;;;18.70;16.70;;;;;;;;;;5096249;28;20927;-79
2022/04/14 12:33:26;;;;;;;19.30;17.50;;;;;;;;;;5095476;28;20452;-79
2022/04/14 12:35:53;;;;;;;19.83;18.03;;;;;;;;;;5095149;28;20510;-80
2022/04/14 12:38:21;;;;;;;19.73;17.93;;;;;;;;;;5095945;28;20432;-79
2022/04/14 12:40:57;;;;;;;20.30;18.50;;;;;;;;;;5097579;28;20447;-80
2022/04/14 12:43:24;;;;;;;19.30;17.10;;;;;;;;;;5101599;28;20450;-80
2022/04/14 12:45:51;;;;;;;18.33;16.70;;;;;;;;;;5102216;28;20478;-80
2022/04/14 12:48:28;;;;;;;15.97;14.47;;;;;;;;;;5102501;28;20450;-80
2022/04/14 12:50:55;;;;;;;19.70;16.17;;;;;;;;;;5101708;28;20518;-81
2022/04/14 12:53:24;;;;;;;18.70;15.97;;;;;;;;;;5101146;28;20490;-80
2022/04/14 12:55:52;;;;;;;18.03;16.20;;;;;;;;;;5101475;28;20494;-79
2022/04/14 12:58:20;;;;;;;20.33;18.53;;;;;;;;;;5102310;28;20486;-79
2022/04/14 13:00:47;;;;;;;19.37;17.40;;;;;;;;;;5100936;28;20440;-79
2022/04/14 13:03:14;;;;;;;17.70;15.90;;;;;;;;;;5096014;28;20451;-79
2022/04/14 13:05:42;;;;;;;20.73;18.77;;;;;;;;;;5096765;28;20459;-79
2022/04/14 13:08:09;;;;;;;19.63;16.83;;;;;;;;;;5098810;28;20435;-81
2022/04/14 13:10:39;;;;;;;17.70;15.90;;;;;;;;;;5099216;28;21131;-79
2022/04/14 13:13:06;;;;;;;19.03;17.33;;;;;;;;;;5100433;28;20826;-81
2022/04/14 13:15:35;;;;;;;17.50;16.03;;;;;;;;;;5100810;28;20475;-78
2022/04/14 13:18:02;;;;;;;17.73;16.00;;;;;;;;;;5100449;28;20439;-79
2022/04/14 13:20:33;;;;;;;17.67;16.27;;;;;;;;;;5100796;28;20470;-80
2022/04/14 13:23:00;;;;;;;18.50;16.70;;;;;;;;;;5099846;28;20461;-80
2022/04/14 13:25:28;;;;;;;20.47;18.50;;;;;;;;;;5101476;28;20456;-80
2022/04/14 13:27:55;;;;;;;20.70;16.97;;;;;;;;;;5101449;28;20490;-79
2022/04/14 13:30:22;;;;;;;19.97;18.13;;;;;;;;;;5101669;28;20448;-79
2022/04/14 13:32:50;;;;;;;19.93;18.03;;;;;;;;;;5101691;28;20821;-79
2022/04/14 13:35:18;;;;;;;22.90;20.73;;;;;;;;;;5099902;28;20503;-80
2022/04/14 13:37:45;;;;;;;21.53;19.50;;;;;;;;;;5098499;28;20452;-80
2022/04/14 13:40:13;;;;;;;21.70;19.57;;;;;;;;;;5100076;28;20439;-81
2022/04/14 13:42:40;;;;;;;21.30;19.17;;;;;;;;;;5100790;28;20436;-79
2022/04/14 13:45:09;;;;;;;21.60;19.80;;;;;;;;;;5100724;28;20456;-80
2022/04/14 13:47:37;;;;;;;18.77;16.87;;;;;;;;;;5115200;28;20451;-79
2022/04/14 13:50:06;;;;;;;19.10;17.37;;;;;;;;;;5098849;28;20439;-80
2022/04/14 13:52:33;;;;;;;22.67;20.47;;;;;;;;;;5099298;28;20490;-80
2022/04/14 13:55:00;;;;;;;21.40;19.50;;;;;;;;;;5098105;28;20529;-80
2022/04/14 13:57:27;;;;;;;22.03;20.00;;;;;;;;;;5099187;28;20436;-80
2022/04/14 13:59:54;;;;;;;23.17;20.83;;;;;;;;;;5099759;28;20449;-80
2022/04/14 14:02:22;;;;;;;21.90;19.90;;;;;;;;;;5099769;28;20458;-80
2022/04/14 14:04:49;;;;;;;20.40;18.30;;;;;;;;;;5100884;28;20487;-80
2022/04/14 14:07:17;;;;;;;20.97;19.17;;;;;;;;;;5100891;28;20444;-81
2022/04/14 14:09:44;;;;;;;19.93;18.23;;;;;;;;;;5101630;28;20439;-80
2022/04/14 14:12:11;;;;;;;19.37;17.47;;;;;;;;;;5100095;28;20476;-81
2022/04/14 14:14:38;;;;;;;21.07;19.27;;;;;;;;;;5099889;28;20475;-81
2022/04/14 14:17:05;;;;;;;21.87;20.00;;;;;;;;;;5099790;28;20443;-81
2022/04/14 14:19:33;;;;;;;19.87;17.83;;;;;;;;;;5100304;28;20542;-81
2022/04/14 14:22:01;;;;;;;19.00;17.50;;;;;;;;;;5101124;28;20470;-80
2022/04/14 14:24:30;;;;;;;19.97;18.07;;;;;;;;;;5100555;28;20524;-81
2022/04/14 14:26:57;;;;;;;20.40;18.47;;;;;;;;;;5100404;28;20791;-82
2022/04/14 14:29:24;;;;;;;21.03;18.77;;;;;;;;;;5101125;28;20438;-81